createdAt,value
2018-12-06T00:04:47.068Z,7.30
2018-12-06T00:09:49.618Z,7.30
2018-12-06T00:14:56.006Z,7.40
2018-12-06T00:19:58.500Z,7.40
2018-12-06T00:25:00.954Z,7.50
2018-12-06T00:30:15.463Z,7.50
2018-12-06T00:35:18.158Z,7.60
2018-12-06T00:40:21.203Z,7.70
2018-12-06T00:45:23.672Z,7.70
2018-12-06T00:50:26.475Z,7.80
2018-12-06T00:55:28.967Z,7.90
2018-12-06T01:00:31.649Z,7.80
2018-12-06T01:05:34.605Z,7.90
2018-12-06T01:10:37.075Z,7.90
2018-12-06T01:15:39.638Z,8.00
2018-12-06T01:20:42.302Z,8.00
2018-12-06T01:25:44.769Z,7.90
2018-12-06T01:30:47.322Z,7.90
2018-12-06T01:35:49.811Z,7.80
2018-12-06T01:40:52.525Z,7.80
2018-12-06T01:45:55.006Z,7.80
2018-12-06T01:50:57.750Z,7.80
2018-12-06T01:56:00.511Z,7.80
2018-12-06T02:01:03.003Z,7.70
2018-12-06T02:06:05.587Z,7.70
2018-12-06T02:11:08.081Z,7.70
2018-12-06T02:16:10.578Z,7.70
2018-12-06T02:21:13.053Z,7.70
2018-12-06T02:26:15.661Z,7.80
2018-12-06T02:31:18.126Z,7.80
2018-12-06T02:36:20.870Z,7.90
2018-12-06T02:41:24.213Z,7.90
2018-12-06T02:46:26.753Z,8.00
2018-12-06T02:51:29.250Z,8.10
2018-12-06T02:56:31.857Z,8.10
2018-12-06T03:01:34.406Z,8.10
2018-12-06T03:06:36.858Z,8.10
2018-12-06T03:11:39.335Z,8.10
2018-12-06T03:16:41.935Z,8.20
2018-12-06T03:21:44.530Z,8.20
2018-12-06T03:26:47.729Z,8.10
2018-12-06T03:31:50.758Z,8.20
2018-12-06T03:36:53.236Z,8.20
2018-12-06T03:41:55.727Z,8.20
2018-12-06T03:46:58.220Z,8.20
2018-12-06T03:52:00.821Z,8.20
2018-12-06T03:57:03.297Z,8.10
2018-12-06T04:02:05.994Z,8.10
2018-12-06T04:07:09.314Z,8.10
2018-12-06T04:12:11.813Z,8.20
2018-12-06T04:17:15.133Z,8.20
2018-12-06T04:22:17.628Z,8.30
2018-12-06T04:27:20.118Z,8.40
2018-12-06T04:32:22.738Z,8.50
2018-12-06T04:37:25.318Z,8.50
2018-12-06T04:42:27.811Z,8.60
2018-12-06T04:47:30.298Z,8.60
2018-12-06T04:52:32.780Z,8.70
2018-12-06T04:57:35.270Z,8.70
2018-12-06T05:02:37.763Z,8.80
2018-12-06T05:07:40.262Z,8.70
2018-12-06T05:12:42.879Z,8.80
2018-12-06T05:17:45.461Z,8.90
2018-12-06T05:22:48.365Z,8.90
2018-12-06T05:27:50.858Z,8.90
2018-12-06T05:32:53.356Z,9.00
2018-12-06T05:37:56.665Z,9.00
2018-12-06T05:42:59.154Z,9.00
2018-12-06T05:48:01.642Z,9.00
2018-12-06T05:53:04.129Z,9.00
2018-12-06T05:58:07.043Z,9.00
2018-12-06T06:03:09.651Z,9.00
2018-12-06T06:08:12.134Z,9.10
2018-12-06T06:13:15.028Z,9.10
2018-12-06T06:18:17.825Z,9.10
2018-12-06T06:23:20.317Z,9.20
2018-12-06T06:28:22.815Z,9.20
2018-12-06T06:33:25.294Z,9.20
2018-12-06T06:38:27.811Z,9.20
2018-12-06T06:43:30.501Z,9.30
2018-12-06T06:48:33.027Z,9.30
2018-12-06T06:53:35.499Z,9.40
2018-12-06T06:58:38.442Z,9.50
2018-12-06T07:03:40.977Z,9.50
2018-12-06T07:08:43.473Z,9.50
2018-12-06T07:13:45.942Z,9.60
2018-12-06T07:18:48.769Z,9.60
2018-12-06T07:23:51.670Z,9.70
2018-12-06T07:28:54.138Z,9.70
2018-12-06T07:33:56.611Z,9.70
2018-12-06T07:38:59.150Z,9.70
2018-12-06T07:44:02.366Z,9.80
2018-12-06T07:49:04.954Z,9.80
2018-12-06T07:54:07.561Z,9.80
2018-12-06T07:59:10.150Z,9.90
2018-12-06T08:04:12.642Z,9.90
2018-12-06T08:09:15.101Z,9.90
2018-12-06T08:14:17.637Z,10.00
2018-12-06T08:19:20.166Z,10.10
2018-12-06T08:24:22.716Z,10.10
2018-12-06T08:29:25.209Z,10.20
2018-12-06T08:34:27.703Z,10.30
2018-12-06T08:39:30.218Z,10.30
2018-12-06T08:44:33.209Z,10.30
2018-12-06T08:49:35.694Z,10.30
2018-12-06T08:54:38.185Z,10.30
2018-12-06T08:59:40.686Z,10.30
2018-12-06T09:04:43.178Z,10.40
2018-12-06T09:09:45.710Z,10.30
2018-12-06T09:14:48.266Z,10.50
2018-12-06T09:19:50.750Z,10.50
2018-12-06T09:24:53.263Z,10.60
2018-12-06T09:29:55.770Z,10.70
2018-12-06T09:34:58.275Z,10.70
2018-12-06T09:40:00.741Z,10.80
2018-12-06T09:45:03.946Z,10.80
2018-12-06T09:50:06.585Z,10.80
2018-12-06T09:55:09.127Z,10.80
2018-12-06T10:00:13.902Z,10.90
2018-12-06T10:05:16.370Z,10.80
2018-12-06T10:10:18.974Z,10.90
2018-12-06T10:15:21.567Z,11.00
2018-12-06T10:20:24.137Z,11.00
2018-12-06T10:25:26.669Z,11.00
2018-12-06T10:30:29.136Z,11.00
2018-12-06T10:35:32.363Z,11.10
2018-12-06T10:40:35.280Z,11.20
2018-12-06T10:45:37.837Z,11.20
2018-12-06T10:50:40.346Z,11.30
2018-12-06T10:55:42.992Z,11.30
2018-12-06T11:00:57.165Z,11.40
2018-12-06T11:05:55.706Z,11.50
2018-12-06T11:10:58.207Z,11.50
2018-12-06T11:16:00.686Z,11.50
2018-12-06T11:21:03.195Z,11.50
2018-12-06T11:26:05.775Z,11.60
2018-12-06T11:31:08.278Z,11.60
2018-12-06T11:36:10.748Z,11.60
2018-12-06T11:41:13.273Z,11.70
2018-12-06T11:46:15.958Z,11.60
2018-12-06T11:51:18.446Z,11.60
2018-12-06T11:56:20.945Z,11.70
2018-12-06T12:01:24.058Z,11.90
2018-12-06T12:06:26.549Z,12.00
2018-12-06T12:11:29.447Z,12.00
2018-12-06T12:16:31.944Z,12.10
2018-12-06T12:21:34.533Z,12.10
2018-12-06T12:26:37.033Z,12.00
2018-12-06T12:31:39.574Z,12.00
2018-12-06T12:36:42.035Z,12.00
2018-12-06T12:41:46.765Z,12.10
2018-12-06T12:46:49.306Z,12.10
2018-12-06T12:51:51.808Z,12.00
2018-12-06T12:56:54.282Z,12.10
2018-12-06T13:01:56.754Z,12.10
2018-12-06T13:07:07.164Z,12.10
2018-12-06T13:12:09.670Z,12.00
2018-12-06T13:17:12.213Z,12.00
2018-12-06T13:22:14.722Z,12.10
2018-12-06T13:27:17.191Z,12.10
2018-12-06T13:32:19.684Z,12.10
2018-12-06T13:37:22.279Z,12.20
2018-12-06T13:42:24.875Z,12.10
2018-12-06T13:47:27.367Z,12.00
2018-12-06T13:52:29.871Z,12.00
2018-12-06T13:57:32.367Z,11.90
2018-12-06T14:02:34.853Z,11.90
2018-12-06T14:07:37.553Z,11.80
2018-12-06T14:12:40.045Z,11.90
2018-12-06T14:17:42.525Z,11.90
2018-12-06T14:22:45.071Z,11.90
2018-12-06T14:27:47.622Z,11.90
2018-12-06T14:32:50.161Z,11.90
2018-12-06T14:37:52.618Z,11.80
2018-12-06T14:42:55.134Z,11.80
2018-12-06T14:47:57.609Z,11.80
2018-12-06T14:53:00.182Z,11.80
2018-12-06T14:58:03.458Z,11.80
2018-12-06T15:03:05.986Z,11.80
2018-12-06T15:08:08.466Z,11.80
2018-12-06T15:13:11.083Z,11.80
2018-12-06T15:18:13.602Z,11.70
2018-12-06T15:23:16.157Z,11.70
2018-12-06T15:28:19.476Z,11.70
2018-12-06T15:33:22.078Z,11.60
2018-12-06T15:38:25.030Z,11.70
2018-12-06T15:43:27.574Z,11.70
2018-12-06T15:48:30.550Z,11.60
2018-12-06T15:53:33.050Z,11.60
2018-12-06T15:58:35.750Z,11.60
2018-12-06T16:03:38.251Z,11.60
2018-12-06T16:08:40.736Z,11.60
2018-12-06T16:13:43.193Z,11.50
2018-12-06T16:18:45.667Z,11.50
2018-12-06T16:23:48.158Z,11.50
2018-12-06T16:28:50.639Z,11.50
2018-12-06T16:33:53.111Z,11.50
2018-12-06T16:38:55.763Z,11.60
2018-12-06T16:43:58.365Z,11.50
2018-12-06T16:49:00.894Z,11.60
2018-12-06T16:54:03.393Z,11.60
2018-12-06T16:59:05.888Z,11.60
2018-12-06T17:04:08.511Z,11.70
2018-12-06T17:09:11.052Z,11.70
2018-12-06T17:14:13.515Z,11.70
2018-12-06T17:19:15.979Z,11.80
2018-12-06T17:24:18.465Z,11.80
2018-12-06T17:29:20.922Z,11.80
2018-12-06T17:34:23.422Z,11.90
2018-12-06T17:39:25.869Z,11.90
2018-12-06T17:44:28.358Z,11.80
2018-12-06T17:49:30.829Z,11.80
2018-12-06T17:54:33.526Z,11.80
2018-12-06T17:59:36.061Z,11.70
2018-12-06T18:04:38.613Z,11.70
2018-12-06T18:09:41.486Z,11.70
2018-12-06T18:14:44.013Z,11.80
2018-12-06T18:19:46.715Z,11.70
2018-12-06T18:24:49.289Z,11.80
2018-12-06T18:29:51.786Z,11.80
2018-12-06T18:34:54.786Z,11.80
2018-12-06T18:39:57.552Z,11.70
2018-12-06T18:45:00.810Z,11.70
2018-12-06T18:50:03.859Z,11.70
2018-12-06T18:55:06.368Z,11.70
2018-12-06T19:00:09.276Z,11.70
2018-12-06T19:05:12.201Z,11.70
2018-12-06T19:10:14.701Z,11.80
2018-12-06T19:15:17.201Z,11.80
2018-12-06T19:20:19.687Z,11.70
2018-12-06T19:25:22.386Z,11.70
2018-12-06T19:30:25.389Z,11.70
2018-12-06T19:35:27.853Z,11.80
2018-12-06T19:40:30.345Z,11.70
2018-12-06T19:45:32.878Z,11.70
2018-12-06T19:50:35.362Z,11.80
2018-12-06T19:55:38.012Z,11.80
2018-12-06T20:00:40.525Z,11.80
2018-12-06T20:05:43.002Z,11.90
2018-12-06T20:10:45.470Z,11.90
2018-12-06T20:15:47.949Z,11.90
2018-12-06T20:20:50.502Z,11.90
2018-12-06T20:25:53.045Z,11.90
2018-12-06T20:30:55.532Z,11.90
2018-12-06T20:35:58.015Z,12.00
2018-12-06T20:41:00.547Z,12.00
2018-12-06T20:46:03.083Z,12.00
2018-12-06T20:51:05.573Z,12.00
2018-12-06T20:56:08.136Z,12.00
2018-12-06T21:01:10.901Z,12.10
2018-12-06T21:06:13.849Z,12.10
2018-12-06T21:11:16.406Z,12.10
2018-12-06T21:16:18.890Z,12.20
2018-12-06T21:21:21.369Z,12.20
2018-12-06T21:26:23.818Z,12.20
2018-12-06T21:31:26.333Z,12.20
2018-12-06T21:36:28.822Z,12.20
2018-12-06T21:41:31.322Z,12.20
2018-12-06T21:46:33.794Z,12.10
2018-12-06T21:51:36.270Z,12.10
2018-12-06T21:56:38.759Z,12.10
2018-12-06T22:01:41.518Z,12.10
2018-12-06T22:06:44.211Z,12.00
2018-12-06T22:11:47.434Z,11.90
2018-12-06T22:16:50.022Z,11.80
2018-12-06T22:21:52.722Z,11.70
2018-12-06T22:26:55.318Z,11.60
2018-12-06T22:31:57.894Z,11.60
2018-12-06T22:37:00.403Z,11.50
2018-12-06T22:42:03.314Z,11.50
2018-12-06T22:47:05.794Z,11.50
2018-12-06T22:52:08.393Z,11.50
2018-12-06T22:57:10.895Z,11.50
2018-12-06T23:02:13.411Z,11.50
2018-12-06T23:07:15.985Z,11.40
2018-12-06T23:12:18.677Z,11.40
2018-12-06T23:17:21.162Z,11.40
2018-12-06T23:22:23.757Z,11.40
2018-12-06T23:27:26.270Z,11.40
2018-12-06T23:32:28.739Z,11.40
2018-12-06T23:37:31.546Z,11.40
2018-12-06T23:42:34.549Z,11.30
2018-12-06T23:47:38.374Z,11.30
2018-12-06T23:52:40.871Z,11.30
2018-12-06T23:57:43.566Z,11.30
